createdAt,value
2019-03-30T00:01:09.693Z,3.65
2019-03-30T00:03:40.869Z,3.98
2019-03-30T00:06:11.818Z,4.30
2019-03-30T00:08:42.549Z,4.40
2019-03-30T00:11:13.862Z,3.92
2019-03-30T00:13:44.652Z,3.70
2019-03-30T00:16:18.148Z,3.22
2019-03-30T00:18:49.066Z,3.75
2019-03-30T00:21:20.521Z,4.20
2019-03-30T00:23:52.302Z,3.83
2019-03-30T00:26:23.424Z,4.08
2019-03-30T00:28:55.045Z,4.62
2019-03-30T00:31:25.887Z,4.20
2019-03-30T00:33:56.923Z,3.90
2019-03-30T00:36:27.770Z,4.33
2019-03-30T00:38:58.683Z,4.17
2019-03-30T00:41:29.644Z,3.90
2019-03-30T00:44:00.907Z,3.70
2019-03-30T00:46:31.804Z,4.03
2019-03-30T00:49:03.090Z,4.12
2019-03-30T00:51:34.179Z,4.05
2019-03-30T00:54:07.748Z,4.22
2019-03-30T00:56:38.777Z,4.47
2019-03-30T00:59:11.101Z,4.20
2019-03-30T01:01:42.017Z,4.40
2019-03-30T01:04:13.478Z,4.12
2019-03-30T01:06:44.645Z,4.40
2019-03-30T01:09:16.907Z,4.33
2019-03-30T01:11:48.775Z,4.50
2019-03-30T01:14:20.826Z,4.53
2019-03-30T01:16:54.991Z,4.95
2019-03-30T01:19:25.692Z,4.35
2019-03-30T01:21:56.725Z,4.22
2019-03-30T01:24:27.615Z,3.65
2019-03-30T01:26:58.637Z,4.12
2019-03-30T01:29:29.385Z,4.33
2019-03-30T01:32:00.246Z,4.00
2019-03-30T01:34:31.010Z,4.85
2019-03-30T01:37:02.268Z,4.35
2019-03-30T01:39:33.100Z,4.17
2019-03-30T01:42:04.230Z,4.90
2019-03-30T01:44:35.139Z,4.22
2019-03-30T01:47:06.130Z,4.40
2019-03-30T01:49:36.856Z,4.55
2019-03-30T01:52:09.639Z,4.20
2019-03-30T01:54:40.599Z,4.50
2019-03-30T01:57:11.525Z,5.08
2019-03-30T01:59:42.341Z,5.03
2019-03-30T02:02:13.604Z,5.12
2019-03-30T02:04:44.363Z,4.83
2019-03-30T02:07:15.368Z,4.20
2019-03-30T02:09:46.223Z,4.85
2019-03-30T02:12:17.366Z,4.80
2019-03-30T02:14:48.083Z,4.08
2019-03-30T02:17:20.230Z,4.40
2019-03-30T02:19:51.415Z,3.85
2019-03-30T02:22:22.115Z,4.25
2019-03-30T02:24:52.971Z,4.17
2019-03-30T02:27:24.000Z,5.72
2019-03-30T02:29:55.657Z,4.85
2019-03-30T02:32:26.957Z,5.37
2019-03-30T02:34:57.827Z,5.08
2019-03-30T02:37:28.777Z,5.47
2019-03-30T02:39:59.506Z,5.85
2019-03-30T02:42:31.455Z,6.47
2019-03-30T02:45:02.220Z,5.92
2019-03-30T02:47:32.937Z,5.33
2019-03-30T02:50:03.731Z,6.60
2019-03-30T02:52:34.938Z,6.20
2019-03-30T02:55:07.011Z,5.70
2019-03-30T02:57:38.284Z,5.70
2019-03-30T03:00:12.317Z,5.75
2019-03-30T03:02:43.010Z,5.65
2019-03-30T03:05:14.260Z,5.92
2019-03-30T03:07:45.226Z,5.80
2019-03-30T03:10:16.538Z,5.53
2019-03-30T03:12:48.412Z,5.22
2019-03-30T03:15:19.323Z,5.40
2019-03-30T03:17:50.188Z,5.62
2019-03-30T03:20:20.935Z,5.90
2019-03-30T03:22:51.770Z,5.20
2019-03-30T03:25:22.719Z,5.40
2019-03-30T03:27:53.474Z,5.15
2019-03-30T03:30:24.385Z,4.37
2019-03-30T03:32:55.145Z,5.03
2019-03-30T03:35:26.625Z,4.53
2019-03-30T03:37:57.383Z,4.62
2019-03-30T03:40:29.403Z,4.90
2019-03-30T03:43:00.658Z,4.30
2019-03-30T03:45:31.688Z,5.20
2019-03-30T03:48:02.895Z,5.17
2019-03-30T03:50:58.939Z,4.85
2019-03-30T03:53:30.442Z,5.20
2019-03-30T03:56:02.580Z,4.35
2019-03-30T03:58:35.529Z,3.75
2019-03-30T04:01:07.113Z,5.00
2019-03-30T04:03:39.619Z,4.10
2019-03-30T04:06:12.046Z,4.83
2019-03-30T04:08:46.182Z,4.45
2019-03-30T04:11:18.857Z,5.17
2019-03-30T04:13:52.535Z,4.40
2019-03-30T04:16:23.384Z,4.30
2019-03-30T04:18:54.210Z,4.33
2019-03-30T04:21:42.476Z,5.03
2019-03-30T04:23:57.319Z,4.90
2019-03-30T04:26:28.143Z,4.30
2019-03-30T04:28:59.035Z,4.55
2019-03-30T04:31:30.432Z,5.03
2019-03-30T04:34:01.329Z,4.58
2019-03-30T04:36:32.273Z,4.35
2019-03-30T04:39:03.054Z,4.60
2019-03-30T04:41:33.850Z,4.10
2019-03-30T04:44:04.682Z,4.40
2019-03-30T04:46:35.962Z,4.75
2019-03-30T04:49:07.251Z,4.22
2019-03-30T04:51:38.068Z,4.70
2019-03-30T04:54:09.234Z,4.20
2019-03-30T04:56:40.414Z,4.10
2019-03-30T04:59:11.935Z,4.25
2019-03-30T05:01:43.765Z,3.75
2019-03-30T05:04:14.608Z,4.45
2019-03-30T05:06:45.284Z,3.70
2019-03-30T05:09:16.613Z,4.40
2019-03-30T05:11:47.587Z,4.30
2019-03-30T05:14:20.006Z,4.55
2019-03-30T05:16:51.791Z,5.15
2019-03-30T05:19:22.649Z,4.83
2019-03-30T05:21:53.579Z,4.90
2019-03-30T05:24:24.501Z,4.30
2019-03-30T05:26:55.383Z,4.12
2019-03-30T05:29:26.227Z,5.30
2019-03-30T05:31:57.253Z,4.55
2019-03-30T05:34:28.023Z,5.25
2019-03-30T05:36:58.700Z,4.20
2019-03-30T05:39:29.459Z,3.98
2019-03-30T05:42:02.582Z,5.28
2019-03-30T05:44:33.403Z,4.60
2019-03-30T05:47:04.139Z,3.90
2019-03-30T05:49:35.989Z,4.30
2019-03-30T05:52:06.747Z,3.92
2019-03-30T05:54:38.727Z,3.75
2019-03-30T05:57:10.718Z,3.95
2019-03-30T05:59:41.562Z,3.95
2019-03-30T06:02:12.608Z,3.80
2019-03-30T06:04:43.591Z,4.05
2019-03-30T06:07:14.528Z,3.72
2019-03-30T06:09:45.858Z,4.60
2019-03-30T06:12:16.731Z,3.98
2019-03-30T06:14:47.646Z,3.70
2019-03-30T06:17:18.686Z,4.10
2019-03-30T06:19:50.597Z,4.25
2019-03-30T06:22:21.418Z,4.30
2019-03-30T06:24:52.234Z,4.40
2019-03-30T06:27:23.255Z,3.50
2019-03-30T06:30:19.644Z,4.08
2019-03-30T06:32:50.438Z,4.30
2019-03-30T06:35:21.330Z,4.30
2019-03-30T06:37:53.356Z,4.35
2019-03-30T06:40:24.189Z,3.98
2019-03-30T06:42:54.878Z,4.05
2019-03-30T06:45:25.911Z,4.00
2019-03-30T06:47:56.632Z,3.90
2019-03-30T06:50:27.379Z,4.53
2019-03-30T06:52:58.932Z,4.35
2019-03-30T06:55:29.910Z,4.08
2019-03-30T06:58:01.755Z,4.05
2019-03-30T07:00:36.556Z,4.05
2019-03-30T07:03:08.507Z,4.15
2019-03-30T07:05:43.814Z,4.15
2019-03-30T07:08:16.219Z,4.30
2019-03-30T07:10:47.645Z,3.60
2019-03-30T07:13:18.921Z,3.98
2019-03-30T07:15:50.477Z,4.12
2019-03-30T07:18:21.968Z,4.30
2019-03-30T07:20:52.895Z,4.70
2019-03-30T07:23:23.800Z,4.08
2019-03-30T07:25:54.662Z,3.87
2019-03-30T07:28:25.452Z,3.33
2019-03-30T07:30:56.294Z,4.00
2019-03-30T07:33:27.011Z,3.80
2019-03-30T07:35:57.820Z,3.85
2019-03-30T07:38:28.663Z,4.12
2019-03-30T07:40:59.988Z,3.90
2019-03-30T07:43:30.658Z,3.60
2019-03-30T07:46:01.604Z,3.55
2019-03-30T07:48:32.257Z,3.67
2019-03-30T07:51:04.366Z,3.87
2019-03-30T07:53:44.513Z,3.55
2019-03-30T07:56:08.872Z,3.83
2019-03-30T07:58:39.853Z,4.00
2019-03-30T08:01:10.711Z,3.73
2019-03-30T08:03:41.765Z,2.80
2019-03-30T08:06:12.496Z,3.60
2019-03-30T08:08:43.228Z,3.80
2019-03-30T08:11:14.566Z,3.73
2019-03-30T08:13:45.520Z,3.23
2019-03-30T08:16:16.383Z,3.40
2019-03-30T08:18:47.191Z,4.43
2019-03-30T08:21:17.972Z,3.60
2019-03-30T08:23:48.834Z,3.47
2019-03-30T08:26:19.954Z,4.00
2019-03-30T08:28:50.913Z,3.27
2019-03-30T08:31:23.005Z,2.90
2019-03-30T08:33:54.232Z,3.47
2019-03-30T08:36:25.255Z,3.50
2019-03-30T08:38:55.980Z,3.40
2019-03-30T08:41:26.813Z,4.20
2019-03-30T08:43:57.824Z,3.73
2019-03-30T08:46:28.829Z,3.23
2019-03-30T08:48:59.739Z,3.53
2019-03-30T08:51:31.714Z,2.93
2019-03-30T08:54:02.695Z,3.63
2019-03-30T08:56:33.561Z,4.00
2019-03-30T08:59:04.889Z,3.43
2019-03-30T09:01:35.889Z,2.80
2019-03-30T09:04:06.743Z,3.90
2019-03-30T09:06:37.502Z,3.20
2019-03-30T09:09:09.442Z,3.10
2019-03-30T09:11:43.255Z,3.50
2019-03-30T09:14:13.433Z,3.10
2019-03-30T09:16:44.182Z,3.17
2019-03-30T09:19:15.077Z,3.50
2019-03-30T09:21:45.941Z,3.30
2019-03-30T09:24:17.887Z,3.00
2019-03-30T09:26:48.644Z,3.47
2019-03-30T09:29:19.874Z,2.60
2019-03-30T09:31:50.775Z,2.90
2019-03-30T09:34:21.564Z,3.30
2019-03-30T09:36:52.631Z,3.37
2019-03-30T09:39:23.880Z,4.27
2019-03-30T09:41:54.649Z,3.90
2019-03-30T09:44:25.530Z,3.70
2019-03-30T09:46:56.678Z,4.00
2019-03-30T09:49:27.714Z,3.73
2019-03-30T09:51:58.426Z,4.93
2019-03-30T09:54:29.158Z,4.47
2019-03-30T09:57:00.270Z,4.17
2019-03-30T09:59:31.037Z,3.77
2019-03-30T10:02:03.221Z,3.20
2019-03-30T10:04:35.601Z,3.10
2019-03-30T10:07:06.280Z,3.70
2019-03-30T10:09:37.152Z,3.73
2019-03-30T10:12:08.182Z,3.37
2019-03-30T10:14:39.899Z,3.53
2019-03-30T10:17:10.611Z,2.90
2019-03-30T10:19:41.384Z,3.43
2019-03-30T10:22:13.415Z,2.90
2019-03-30T10:24:44.396Z,5.40
2019-03-30T10:27:15.171Z,3.20
2019-03-30T10:29:46.394Z,2.83
2019-03-30T10:32:17.131Z,3.10
2019-03-30T10:34:47.998Z,2.37
2019-03-30T10:37:19.150Z,3.20
2019-03-30T10:39:49.856Z,2.30
2019-03-30T10:42:21.994Z,2.90
2019-03-30T10:44:54.063Z,2.50
2019-03-30T10:47:25.472Z,2.70
2019-03-30T10:49:56.275Z,2.90
2019-03-30T10:52:28.267Z,3.17
2019-03-30T10:54:59.873Z,2.80
2019-03-30T10:57:30.825Z,2.40
2019-03-30T11:00:01.960Z,2.80
2019-03-30T11:02:33.834Z,3.40
2019-03-30T11:05:04.972Z,2.73
2019-03-30T11:07:35.722Z,2.97
2019-03-30T11:10:07.689Z,4.03
2019-03-30T11:12:38.641Z,3.40
2019-03-30T11:15:09.623Z,2.60
2019-03-30T11:17:40.324Z,3.40
2019-03-30T11:20:11.261Z,2.70
2019-03-30T11:22:42.242Z,3.30
2019-03-30T11:25:13.021Z,2.47
2019-03-30T11:27:43.769Z,2.50
2019-03-30T11:30:14.668Z,3.07
2019-03-30T11:32:45.846Z,7.60
2019-03-30T11:35:16.760Z,3.60
2019-03-30T11:37:47.698Z,2.70
2019-03-30T11:40:19.651Z,3.50
2019-03-30T11:42:52.046Z,3.30
2019-03-30T11:45:23.240Z,3.20
2019-03-30T11:47:54.690Z,3.93
2019-03-30T11:50:25.872Z,3.53
2019-03-30T11:52:57.060Z,2.90
2019-03-30T11:55:27.876Z,3.57
2019-03-30T11:57:58.598Z,3.00
2019-03-30T12:00:29.969Z,3.57
2019-03-30T12:03:00.712Z,3.07
2019-03-30T12:05:32.388Z,2.60
2019-03-30T12:08:03.571Z,2.60
2019-03-30T12:10:34.552Z,3.17
2019-03-30T12:13:05.722Z,2.80
2019-03-30T12:15:36.554Z,3.13
2019-03-30T12:18:07.468Z,2.83
2019-03-30T12:20:38.209Z,3.40
2019-03-30T12:23:09.082Z,3.03
2019-03-30T12:25:40.036Z,3.17
2019-03-30T12:28:10.982Z,3.00
2019-03-30T12:30:41.992Z,3.00
2019-03-30T12:33:13.391Z,3.30
2019-03-30T13:42:04.592Z,3.93
2019-03-30T13:44:35.655Z,3.33
2019-03-30T13:47:06.851Z,5.30
2019-03-30T13:49:37.970Z,3.33
2019-03-30T13:52:08.879Z,3.63
2019-03-30T13:54:39.858Z,4.97
2019-03-30T13:57:10.857Z,4.63
2019-03-30T13:59:41.952Z,3.63
2019-03-30T14:02:12.896Z,3.57
2019-03-30T14:04:43.729Z,3.77
2019-03-30T14:07:15.250Z,3.50
2019-03-30T14:09:46.754Z,4.00
2019-03-30T14:12:17.812Z,4.20
2019-03-30T14:14:48.872Z,3.43
2019-03-30T14:17:20.551Z,4.03
2019-03-30T14:19:51.595Z,3.50
2019-03-30T14:22:24.249Z,4.80
2019-03-30T14:24:55.861Z,4.07
2019-03-30T14:27:26.835Z,3.47
2019-03-30T14:29:57.893Z,3.33
2019-03-30T14:32:28.776Z,4.37
2019-03-30T14:35:00.329Z,3.13
2019-03-30T14:37:31.439Z,3.90
2019-03-30T14:40:02.259Z,4.03
2019-03-30T14:42:33.469Z,3.33
2019-03-30T14:45:04.746Z,3.17
2019-03-30T14:47:35.579Z,4.03
2019-03-30T14:50:08.071Z,4.50
2019-03-30T14:52:39.024Z,3.80
2019-03-30T14:55:10.195Z,3.37
2019-03-30T14:57:41.218Z,3.40
2019-03-30T15:00:12.758Z,3.13
2019-03-30T15:02:43.676Z,3.53
2019-03-30T15:05:14.809Z,3.23
2019-03-30T15:07:46.218Z,2.83
2019-03-30T15:10:17.291Z,3.27
2019-03-30T15:12:48.402Z,3.23
2019-03-30T15:15:19.606Z,3.07
2019-03-30T15:17:50.757Z,2.40
2019-03-30T15:20:22.778Z,3.70
2019-03-30T15:22:53.984Z,3.93
2019-03-30T15:25:25.019Z,2.67
2019-03-30T15:27:56.281Z,3.47
2019-03-30T15:30:27.184Z,2.90
2019-03-30T15:32:58.119Z,2.90
2019-03-30T15:35:29.389Z,2.70
2019-03-30T15:38:00.733Z,3.17
2019-03-30T15:40:32.239Z,3.10
2019-03-30T15:43:03.266Z,3.33
2019-03-30T15:45:34.475Z,3.80
2019-03-30T15:48:05.518Z,3.40
2019-03-30T15:50:37.163Z,3.43
2019-03-30T15:53:08.514Z,2.93
2019-03-30T15:55:39.513Z,3.17
2019-03-30T15:58:10.507Z,3.10
2019-03-30T16:00:41.314Z,3.80
2019-03-30T16:03:12.658Z,3.13
2019-03-30T16:05:43.521Z,3.57
2019-03-30T16:08:14.577Z,3.40
2019-03-30T16:10:45.513Z,4.27
2019-03-30T16:13:16.483Z,3.83
2019-03-30T16:15:47.563Z,3.20
2019-03-30T16:18:18.700Z,3.43
2019-03-30T16:20:49.912Z,3.50
2019-03-30T16:23:20.910Z,3.50
2019-03-30T16:25:51.901Z,3.30
2019-03-30T16:28:22.918Z,3.70
2019-03-30T16:30:53.910Z,3.70
2019-03-30T16:33:24.840Z,3.17
2019-03-30T16:35:55.703Z,3.67
2019-03-30T16:38:26.549Z,3.43
2019-03-30T16:40:57.601Z,3.97
2019-03-30T16:43:28.583Z,3.90
2019-03-30T16:45:59.791Z,3.50
2019-03-30T16:48:31.079Z,4.40
2019-03-30T16:51:02.434Z,3.90
2019-03-30T16:53:33.395Z,3.90
2019-03-30T16:56:04.570Z,3.80
2019-03-30T16:58:35.570Z,4.40
2019-03-30T17:01:06.422Z,4.20
2019-03-30T17:03:40.978Z,3.60
2019-03-30T17:06:11.991Z,3.83
2019-03-30T17:08:42.964Z,4.27
2019-03-30T17:11:14.658Z,4.13
2019-03-30T17:13:45.910Z,4.17
2019-03-30T17:16:16.850Z,3.70
2019-03-30T17:18:47.967Z,4.17
2019-03-30T17:21:19.034Z,3.73
2019-03-30T17:23:50.101Z,3.63
2019-03-30T17:26:21.209Z,3.97
2019-03-30T17:28:52.405Z,4.33
2019-03-30T17:31:23.721Z,4.30
2019-03-30T17:33:54.682Z,4.13
2019-03-30T17:36:25.816Z,3.87
2019-03-30T17:38:56.794Z,4.00
2019-03-30T17:41:27.884Z,3.22
2019-03-30T17:43:58.856Z,3.47
2019-03-30T17:46:29.765Z,3.90
2019-03-30T17:49:01.071Z,3.93
2019-03-30T17:51:32.169Z,3.30
2019-03-30T17:54:03.169Z,3.80
2019-03-30T17:56:34.634Z,4.10
2019-03-30T17:59:05.706Z,3.90
2019-03-30T18:01:36.758Z,4.07
2019-03-30T18:04:07.788Z,4.57
2019-03-30T18:06:38.906Z,4.05
2019-03-30T18:09:10.082Z,3.83
2019-03-30T18:11:41.030Z,4.28
2019-03-30T18:14:12.388Z,4.08
2019-03-30T18:16:43.388Z,3.92
2019-03-30T18:19:14.827Z,3.67
2019-03-30T18:21:46.219Z,4.65
2019-03-30T18:24:17.016Z,3.77
2019-03-30T18:26:48.029Z,4.55
2019-03-30T18:29:19.003Z,3.80
2019-03-30T18:31:50.446Z,4.47
2019-03-30T18:34:21.313Z,4.60
2019-03-30T18:36:52.917Z,4.20
2019-03-30T18:39:24.320Z,4.00
2019-03-30T18:41:55.373Z,4.72
2019-03-30T18:44:26.616Z,4.22
2019-03-30T18:46:57.694Z,4.47
2019-03-30T18:49:28.784Z,4.50
2019-03-30T18:52:00.062Z,4.33
2019-03-30T18:54:31.813Z,4.20
2019-03-30T18:57:03.137Z,3.92
2019-03-30T18:59:34.146Z,3.97
2019-03-30T19:02:04.998Z,4.15
2019-03-30T19:04:35.981Z,4.22
2019-03-30T19:07:07.104Z,4.53
2019-03-30T19:09:38.121Z,4.28
2019-03-30T19:12:10.999Z,4.30
2019-03-30T19:14:41.979Z,4.70
2019-03-30T19:17:13.049Z,5.17
2019-03-30T19:19:44.282Z,4.65
2019-03-30T19:22:15.299Z,4.60
2019-03-30T19:24:46.551Z,4.22
2019-03-30T19:27:41.109Z,4.40
2019-03-30T19:30:12.653Z,4.25
2019-03-30T19:32:43.733Z,4.20
2019-03-30T19:35:14.789Z,4.70
2019-03-30T19:37:45.917Z,4.03
2019-03-30T19:40:16.839Z,4.60
2019-03-30T19:42:47.832Z,4.40
2019-03-30T19:45:18.854Z,4.00
2019-03-30T19:47:50.078Z,3.90
2019-03-30T19:50:21.108Z,3.98
2019-03-30T19:52:52.055Z,3.60
2019-03-30T19:55:23.027Z,3.70
2019-03-30T19:57:53.964Z,3.87
2019-03-30T20:00:24.985Z,4.30
2019-03-30T20:02:55.992Z,4.87
2019-03-30T20:05:28.112Z,4.60
2019-03-30T20:08:11.522Z,4.78
2019-03-30T20:10:32.333Z,4.33
2019-03-30T20:13:03.361Z,4.00
2019-03-30T20:15:34.257Z,4.40
2019-03-30T20:18:05.250Z,4.35
2019-03-30T20:20:36.692Z,4.85
2019-03-30T20:23:07.806Z,4.00
2019-03-30T20:25:38.794Z,4.00
2019-03-30T20:28:09.738Z,4.35
2019-03-30T20:30:40.578Z,4.05
2019-03-30T20:33:11.593Z,4.62
2019-03-30T20:35:42.645Z,4.05
2019-03-30T20:38:13.559Z,3.62
2019-03-30T20:40:44.632Z,4.20
2019-03-30T20:43:16.485Z,4.35
2019-03-30T20:45:47.509Z,3.90
2019-03-30T20:48:18.469Z,3.50
2019-03-30T20:50:49.354Z,3.62
2019-03-30T20:53:20.367Z,3.75
2019-03-30T20:55:51.238Z,3.90
2019-03-30T20:58:22.241Z,3.47
2019-03-30T21:00:53.241Z,4.17
2019-03-30T21:03:24.231Z,3.58
2019-03-30T21:05:55.330Z,4.30
2019-03-30T21:08:26.610Z,4.08
2019-03-30T21:10:57.719Z,3.33
2019-03-30T21:13:28.884Z,3.20
2019-03-30T21:16:00.016Z,3.20
2019-03-30T21:18:30.933Z,3.37
2019-03-30T21:21:03.064Z,3.35
2019-03-30T21:23:34.122Z,3.87
2019-03-30T21:26:05.842Z,3.98
2019-03-30T21:28:36.787Z,3.65
2019-03-30T21:31:09.024Z,4.10
2019-03-30T21:33:40.434Z,3.90
2019-03-30T21:36:11.393Z,3.60
2019-03-30T21:38:42.380Z,3.90
2019-03-30T21:41:13.498Z,3.45
2019-03-30T21:43:45.471Z,3.20
2019-03-30T21:46:16.743Z,4.10
2019-03-30T21:48:47.920Z,3.55
2019-03-30T21:51:18.855Z,3.72
2019-03-30T21:53:50.840Z,3.55
2019-03-30T21:56:21.840Z,3.60
2019-03-30T21:58:52.799Z,4.00
2019-03-30T22:01:24.033Z,3.95
2019-03-30T22:03:55.162Z,3.60
2019-03-30T22:06:26.344Z,4.00
2019-03-30T22:08:57.626Z,4.37
2019-03-30T22:11:28.578Z,3.20
2019-03-30T22:13:59.697Z,4.05
2019-03-30T22:16:30.810Z,3.60
2019-03-30T22:19:01.986Z,4.40
2019-03-30T22:21:33.349Z,3.95
2019-03-30T22:24:04.292Z,4.25
2019-03-30T22:26:35.736Z,4.17
2019-03-30T22:29:07.629Z,3.47
2019-03-30T22:31:39.744Z,4.30
2019-03-30T22:34:10.703Z,4.12
2019-03-30T22:36:42.137Z,3.72
2019-03-30T22:39:13.112Z,4.40
2019-03-30T22:41:44.345Z,4.12
2019-03-30T22:44:15.222Z,3.62
2019-03-30T22:46:46.822Z,3.72
2019-03-30T22:49:18.369Z,4.92
2019-03-30T22:51:49.459Z,4.40
2019-03-30T22:54:20.476Z,4.30
2019-03-30T22:56:55.211Z,4.45
2019-03-30T22:59:32.750Z,4.37
2019-03-30T23:02:04.030Z,4.20
2019-03-30T23:04:35.427Z,4.35
2019-03-30T23:07:07.132Z,5.33
2019-03-30T23:09:39.597Z,5.03
2019-03-30T23:12:10.874Z,4.62
2019-03-30T23:14:42.681Z,4.92
2019-03-30T23:17:14.220Z,4.90
2019-03-30T23:19:45.336Z,4.97
2019-03-30T23:22:16.798Z,4.28
2019-03-30T23:24:56.843Z,4.40
2019-03-30T23:27:28.010Z,4.80
2019-03-30T23:29:59.346Z,4.40
2019-03-30T23:32:30.415Z,4.42
2019-03-30T23:35:01.454Z,5.15
2019-03-30T23:37:32.395Z,4.50
2019-03-30T23:40:03.701Z,4.37
2019-03-30T23:42:35.879Z,4.78
2019-03-30T23:45:07.138Z,5.47
2019-03-30T23:47:38.641Z,5.37
2019-03-30T23:50:09.817Z,5.30
2019-03-30T23:52:40.948Z,5.28
2019-03-30T23:55:12.012Z,5.00
2019-03-30T23:57:43.306Z,4.35
